Aeroporto :
LOGIN :

Iscrizione | Disclaimer

   EN    FR    IT 

 










Sommario :    VFR   VFR Marginale   IFR   IFR Intensivo   IFR Molto Intensivo
Visibilità : 
Base nubi : 
>= 8 km
>= 3000ft
5 / 8 km
1000 / 3000 ft
1500m / 5 km
500 / 1000 ft
800 / 1500m
200 / 500 ft
< 800m
< 200 ft
Simboli :   Temporali  Nebbia  Neve Forte  Precipitazioni Forti  Vento > 20 kt
SIGMETs :   Varie  Temporali  Ghiacco  Turbolenza  Onda orograficha  Ceneri Vulcaniche






- Altitudine del aeroporto : 119 ft
- Codice IATA : WAT


EIWF - Waterford

ULTIMO METAR :
  • 110900Z 28012KT 240V310 9999 FEW030 04/02 Q1001 R21/0/////

METARs OBSOLETI :
  • 110830Z 26006KT 180V310 9999 FEW030 03/02 Q1001 R21/1/////
  • 110800Z 30006KT 270V350 CAVOK 03/02 Q1001 R21/1/////

TAF TAF EIWF
Valido dal 11 a 09 ore il 11 a 18 ore UTC


110800Z 1109/1118 30010KT 9999 FEW018 SCT030
PROB40
TEMPO 1109/1117 -SHRA SCT018CB
BECMG 1116/1118 27008KT
ATIS : +353 51 877 000



MetMap, La meteo Aeronautica in un colpo d'occhio ! - Copyright ORBIFLY Dicembre 2007 - Disclaimer

ORBIFLY MET'MAP TEAM :

Programmazione e sviluppo : Alexandra Zaïnal
Concezione : Baudouin d'Aumeries
Aiuto per la programmazione : Marc-Olivier Méhu
Supporto tecnico e logistico : Manuel Goepfert
Aiuto per la traduzione : Arnaldo La Scala

Contatto : metmap@orbifly.com




FONTI E CREDITI :

   NOAA